Time;durP1;ratioP1;P1;durP2;ratioP2;P2;SDS_P1;SDS_P2;PMS_P1;PMS_P2;Temp;Humidity;BMP_temperature;BMP_pressure;BME280_temperature;BME280_humidity;BME280_pressure;Samples;Min_cycle;Max_cycle;Signal;HPM_P1;HPM_P2
2022/11/18 00:01:17;;;;;;;2.83;1.40;;;;;;;;;;5052155;28;20029;-78
2022/11/18 00:03:43;;;;;;;3.15;1.30;;;;;;;;;;5052514;28;20119;-78
2022/11/18 00:06:14;;;;;;;7.10;1.40;;;;;;;;;;5052388;28;20025;-76
2022/11/18 00:08:40;;;;;;;1.92;1.30;;;;;;;;;;5052247;28;20032;-77
2022/11/18 00:11:07;;;;;;;2.63;1.20;;;;;;;;;;5052094;28;20025;-78
2022/11/18 00:16:16;;;;;;;6.25;1.20;;;;;;;;;;5050031;28;20512;-78
2022/11/18 00:18:41;;;;;;;4.15;1.40;;;;;;;;;;5051886;28;20037;-78
2022/11/18 00:21:09;;;;;;;2.97;1.20;;;;;;;;;;5018582;28;20451;-78
2022/11/18 00:23:35;;;;;;;4.40;1.55;;;;;;;;;;5051993;28;20034;-76
2022/11/18 00:26:13;;;;;;;1.73;1.10;;;;;;;;;;5051607;28;20152;-78
2022/11/18 00:28:39;;;;;;;3.45;1.50;;;;;;;;;;5035407;28;20045;-78
2022/11/18 00:31:07;;;;;;;2.55;1.42;;;;;;;;;;5051862;28;20075;-78
2022/11/18 00:33:32;;;;;;;1.75;1.08;;;;;;;;;;5051704;28;20040;-77
2022/11/18 00:35:58;;;;;;;2.58;1.33;;;;;;;;;;5051955;28;20021;-78
2022/11/18 00:38:24;;;;;;;4.93;1.17;;;;;;;;;;5036431;28;20101;-78
2022/11/18 00:41:10;;;;;;;1.20;1.10;;;;;;;;;;5034709;28;20052;-77
2022/11/18 00:43:36;;;;;;;4.65;1.60;;;;;;;;;;5051776;28;20460;-77
2022/11/18 00:46:02;;;;;;;5.90;1.30;;;;;;;;;;5051571;28;20034;-78
2022/11/18 00:48:28;;;;;;;4.60;1.23;;;;;;;;;;5051668;28;20431;-78
2022/11/18 00:50:55;;;;;;;2.42;1.30;;;;;;;;;;5034818;28;20025;-77
2022/11/18 00:53:22;;;;;;;2.65;1.20;;;;;;;;;;5034514;28;20033;-77
2022/11/18 00:55:48;;;;;;;2.20;1.40;;;;;;;;;;5051864;28;20383;-77
2022/11/18 00:58:14;;;;;;;2.50;1.55;;;;;;;;;;5051424;28;20040;-77
2022/11/18 01:00:41;;;;;;;3.15;1.33;;;;;;;;;;5051678;28;20044;-77
2022/11/18 01:03:07;;;;;;;1.88;1.30;;;;;;;;;;5049670;28;20029;-77
2022/11/18 01:05:32;;;;;;;2.88;1.40;;;;;;;;;;5036152;28;20037;-77
2022/11/18 01:07:58;;;;;;;2.55;1.40;;;;;;;;;;5034469;28;20043;-77
2022/11/18 01:10:24;;;;;;;2.53;1.50;;;;;;;;;;5051161;28;20029;-77
2022/11/18 01:15:41;;;;;;;2.83;1.50;;;;;;;;;;5048567;28;20072;-77
2022/11/18 01:18:06;;;;;;;3.28;1.67;;;;;;;;;;5051122;28;20124;-77
2022/11/18 01:20:32;;;;;;;3.08;1.15;;;;;;;;;;5035347;28;20420;-77
2022/11/18 01:22:58;;;;;;;1.73;1.27;;;;;;;;;;5051032;28;20029;-77
2022/11/18 01:25:23;;;;;;;5.05;1.30;;;;;;;;;;5035190;28;20090;-76
2022/11/18 01:27:48;;;;;;;3.20;1.30;;;;;;;;;;5050599;28;20060;-77
2022/11/18 01:30:15;;;;;;;3.20;1.38;;;;;;;;;;5050900;28;20087;-77
2022/11/18 01:32:41;;;;;;;2.10;1.13;;;;;;;;;;5050505;28;20032;-77
2022/11/18 01:35:07;;;;;;;2.17;1.20;;;;;;;;;;5050656;28;20033;-76
2022/11/18 01:37:33;;;;;;;1.65;1.27;;;;;;;;;;5033786;28;20033;-76
2022/11/18 01:39:58;;;;;;;2.65;1.55;;;;;;;;;;5050625;28;20030;-78
2022/11/18 01:42:23;;;;;;;3.20;1.70;;;;;;;;;;5050871;28;20025;-77
2022/11/18 01:44:59;;;;;;;1.92;1.20;;;;;;;;;;5035615;28;20112;-79
2022/11/18 01:47:31;;;;;;;2.17;1.13;;;;;;;;;;5050289;28;20043;-78
2022/11/18 01:49:58;;;;;;;1.83;1.20;;;;;;;;;;5050389;28;20020;-78
2022/11/18 01:52:23;;;;;;;1.63;1.20;;;;;;;;;;5050235;28;20079;-77
2022/11/18 01:54:54;;;;;;;2.28;1.35;;;;;;;;;;5050259;28;20041;-78
2022/11/18 01:57:21;;;;;;;1.75;1.10;;;;;;;;;;5050369;28;20101;-78
2022/11/18 01:59:49;;;;;;;2.60;1.25;;;;;;;;;;5049884;28;20583;-77
2022/11/18 02:02:15;;;;;;;2.25;1.40;;;;;;;;;;5050833;28;20048;-77
2022/11/18 02:04:43;;;;;;;2.67;1.40;;;;;;;;;;5034533;28;20048;-77
2022/11/18 02:07:09;;;;;;;2.25;1.20;;;;;;;;;;5050213;28;20053;-78
2022/11/18 02:09:36;;;;;;;5.85;1.27;;;;;;;;;;5016655;28;20055;-77
2022/11/18 02:12:02;;;;;;;1.70;1.27;;;;;;;;;;5050093;28;20064;-78
2022/11/18 02:14:31;;;;;;;3.63;1.30;;;;;;;;;;5049789;28;20037;-78
2022/11/18 02:17:27;;;;;;;4.35;1.50;;;;;;;;;;5033042;28;20097;-77
2022/11/18 02:19:58;;;;;;;1.90;1.50;;;;;;;;;;5034355;28;20029;-77
2022/11/18 02:22:39;;;;;;;2.42;1.40;;;;;;;;;;5032800;28;20030;-77
2022/11/18 02:25:21;;;;;;;3.05;1.48;;;;;;;;;;5032767;28;20040;-77
2022/11/18 02:28:16;;;;;;;4.97;1.25;;;;;;;;;;5032850;28;20049;-77
2022/11/18 02:30:52;;;;;;;1.85;1.35;;;;;;;;;;5034291;28;20026;-77
2022/11/18 02:33:30;;;;;;;1.20;1.10;;;;;;;;;;5032595;28;20071;-78
2022/11/18 02:36:01;;;;;;;2.13;1.20;;;;;;;;;;5034631;28;20032;-77
2022/11/18 02:38:30;;;;;;;2.35;1.20;;;;;;;;;;5049291;28;20075;-78
2022/11/18 02:41:05;;;;;;;1.98;1.17;;;;;;;;;;5049180;28;20496;-77
2022/11/18 02:43:34;;;;;;;2.70;1.30;;;;;;;;;;5049144;28;20087;-77
2022/11/18 02:46:05;;;;;;;2.65;1.17;;;;;;;;;;5032744;28;20026;-77
2022/11/18 02:48:34;;;;;;;5.60;1.40;;;;;;;;;;5049309;28;20048;-77
2022/11/18 02:51:00;;;;;;;4.80;1.52;;;;;;;;;;5049350;28;20100;-77
2022/11/18 02:53:27;;;;;;;2.10;1.27;;;;;;;;;;5048850;28;20172;-77
2022/11/18 02:55:54;;;;;;;2.58;1.67;;;;;;;;;;5015812;28;20034;-77
2022/11/18 02:58:19;;;;;;;2.80;1.42;;;;;;;;;;5033987;28;20110;-77
2022/11/18 03:00:54;;;;;;;3.75;1.30;;;;;;;;;;5048725;28;20029;-77
2022/11/18 03:03:32;;;;;;;3.10;1.42;;;;;;;;;;5049069;28;20063;-77
2022/11/18 03:06:18;;;;;;;4.53;1.27;;;;;;;;;;5049214;28;20112;-77
2022/11/18 03:09:30;;;;;;;2.00;1.33;;;;;;;;;;5032070;28;20480;-77
2022/11/18 03:12:07;;;;;;;1.83;1.30;;;;;;;;;;5024004;28;20144;-77
2022/11/18 03:14:48;;;;;;;3.00;1.33;;;;;;;;;;5032458;28;20079;-77
2022/11/18 03:17:35;;;;;;;3.70;1.38;;;;;;;;;;5031969;28;20040;-77
2022/11/18 03:20:11;;;;;;;1.70;1.10;;;;;;;;;;5033371;28;20026;-77
2022/11/18 03:22:39;;;;;;;2.03;1.23;;;;;;;;;;5048621;28;20419;-77
2022/11/18 03:25:09;;;;;;;2.97;1.40;;;;;;;;;;5031081;28;20029;-77
2022/11/18 03:27:45;;;;;;;2.05;1.20;;;;;;;;;;5031829;28;20331;-77
2022/11/18 03:30:16;;;;;;;2.25;1.20;;;;;;;;;;5048511;28;20380;-77
2022/11/18 03:32:45;;;;;;;2.20;1.30;;;;;;;;;;5048686;28;20052;-77
2022/11/18 03:35:16;;;;;;;4.13;2.30;;;;;;;;;;5048553;28;20031;-77
2022/11/18 03:37:43;;;;;;;2.45;1.13;;;;;;;;;;5048572;28;20017;-77
2022/11/18 03:40:17;;;;;;;2.15;1.23;;;;;;;;;;5032909;28;20025;-76
2022/11/18 03:43:05;;;;;;;2.42;1.33;;;;;;;;;;5048247;28;20035;-77
2022/11/18 03:45:35;;;;;;;3.65;1.40;;;;;;;;;;5032470;28;20045;-77
2022/11/18 03:48:18;;;;;;;2.63;1.38;;;;;;;;;;5048225;28;20022;-77
2022/11/18 03:51:01;;;;;;;3.83;1.20;;;;;;;;;;5048408;28;20026;-77
2022/11/18 03:53:29;;;;;;;4.53;1.50;;;;;;;;;;5048406;28;20033;-77
2022/11/18 03:56:02;;;;;;;2.47;1.30;;;;;;;;;;5048302;28;20029;-77
2022/11/18 03:58:34;;;;;;;2.15;1.20;;;;;;;;;;5048415;28;20029;-77
2022/11/18 04:01:09;;;;;;;3.55;1.50;;;;;;;;;;5032662;28;20028;-77
2022/11/18 04:03:34;;;;;;;1.95;1.27;;;;;;;;;;5048443;28;20025;-77
2022/11/18 04:06:07;;;;;;;2.58;1.27;;;;;;;;;;5048187;28;20136;-77
2022/11/18 04:08:36;;;;;;;5.45;2.00;;;;;;;;;;5048303;28;20028;-77
2022/11/18 04:12:01;;;;;;;2.90;1.25;;;;;;;;;;5048142;28;20048;-77
2022/11/18 04:13:56;;;;;;;1.45;1.10;;;;;;;;;;5045352;28;20049;-77
2022/11/18 04:16:21;;;;;;;2.33;1.35;;;;;;;;;;5047859;28;20041;-77
2022/11/18 04:18:46;;;;;;;4.07;1.17;;;;;;;;;;5048423;28;20372;-76
2022/11/18 04:21:12;;;;;;;1.98;1.35;;;;;;;;;;5032837;28;20056;-77
2022/11/18 04:23:37;;;;;;;2.50;1.20;;;;;;;;;;5032996;28;20025;-77
2022/11/18 04:26:02;;;;;;;5.07;1.25;;;;;;;;;;5031298;28;20555;-77
2022/11/18 04:28:28;;;;;;;2.67;1.30;;;;;;;;;;5047743;28;20058;-77
2022/11/18 04:30:53;;;;;;;1.60;1.15;;;;;;;;;;5014808;28;20026;-77
2022/11/18 04:33:18;;;;;;;1.95;1.20;;;;;;;;;;5031134;28;20037;-77
2022/11/18 04:35:45;;;;;;;2.10;1.23;;;;;;;;;;5031624;28;20538;-77
2022/11/18 04:38:11;;;;;;;1.48;1.17;;;;;;;;;;5051608;28;20029;-77
2022/11/18 04:40:36;;;;;;;1.88;1.20;;;;;;;;;;5036335;28;20400;-77
2022/11/18 04:43:01;;;;;;;2.60;1.20;;;;;;;;;;5052028;28;20037;-77
2022/11/18 04:45:27;;;;;;;2.20;1.23;;;;;;;;;;5051599;28;20033;-77
2022/11/18 04:47:52;;;;;;;2.92;1.25;;;;;;;;;;5034606;28;20029;-77
2022/11/18 04:50:18;;;;;;;2.25;1.00;;;;;;;;;;5035883;28;20109;-76
2022/11/18 04:52:43;;;;;;;2.30;1.23;;;;;;;;;;5051198;28;20595;-77
2022/11/18 04:55:08;;;;;;;3.55;1.60;;;;;;;;;;5036222;28;20037;-77
2022/11/18 04:57:34;;;;;;;2.15;1.40;;;;;;;;;;5051153;28;20033;-76
2022/11/18 04:59:59;;;;;;;1.85;1.27;;;;;;;;;;5051066;28;20095;-77
2022/11/18 05:02:24;;;;;;;2.40;1.17;;;;;;;;;;5051658;28;20079;-77
2022/11/18 05:04:50;;;;;;;2.63;1.20;;;;;;;;;;5051361;28;20021;-76
2022/11/18 05:07:15;;;;;;;2.63;1.30;;;;;;;;;;5035499;28;20405;-77
2022/11/18 05:09:41;;;;;;;1.35;1.25;;;;;;;;;;5052530;28;20026;-77
2022/11/18 05:14:54;;;;;;;2.85;1.45;;;;;;;;;;5049463;28;20063;-77
2022/11/18 05:17:20;;;;;;;3.53;1.30;;;;;;;;;;5035773;28;20030;-77
2022/11/18 05:19:45;;;;;;;3.00;1.40;;;;;;;;;;5051390;28;20043;-77
2022/11/18 05:22:10;;;;;;;3.33;1.73;;;;;;;;;;5051316;28;20029;-78
2022/11/18 05:24:36;;;;;;;3.55;1.50;;;;;;;;;;5018470;28;20103;-77
2022/11/18 05:27:01;;;;;;;3.55;1.65;;;;;;;;;;5051093;28;20081;-77
2022/11/18 05:29:26;;;;;;;3.58;1.40;;;;;;;;;;5034748;28;20029;-77
2022/11/18 05:31:52;;;;;;;4.43;1.65;;;;;;;;;;5035779;28;20021;-77
2022/11/18 05:34:18;;;;;;;5.75;1.80;;;;;;;;;;5049944;28;20037;-77
2022/11/18 05:36:43;;;;;;;11.63;1.92;;;;;;;;;;5050454;28;20021;-77
2022/11/18 05:39:09;;;;;;;10.15;1.67;;;;;;;;;;5033542;28;20484;-77
2022/11/18 05:44:19;;;;;;;4.13;1.60;;;;;;;;;;5048002;28;20036;-77
2022/11/18 05:46:44;;;;;;;4.20;1.40;;;;;;;;;;5050263;28;20029;-78
2022/11/18 05:49:09;;;;;;;3.58;1.50;;;;;;;;;;5033766;28;20412;-77
2022/11/18 05:51:35;;;;;;;2.38;1.40;;;;;;;;;;5050083;28;20030;-77
2022/11/18 05:54:06;;;;;;;3.58;1.60;;;;;;;;;;5033409;28;20129;-78
2022/11/18 05:56:37;;;;;;;3.83;1.38;;;;;;;;;;5049933;28;20021;-77
2022/11/18 05:59:03;;;;;;;5.70;1.48;;;;;;;;;;5033576;28;20408;-77
2022/11/18 06:01:35;;;;;;;4.82;1.40;;;;;;;;;;5050974;28;20025;-78
2022/11/18 06:04:01;;;;;;;3.75;1.50;;;;;;;;;;5033709;28;20027;-77
2022/11/18 06:06:26;;;;;;;6.80;1.33;;;;;;;;;;5050636;28;20037;-77
2022/11/18 06:09:00;;;;;;;4.80;1.20;;;;;;;;;;5050401;28;20079;-77
2022/11/18 06:11:26;;;;;;;3.00;1.40;;;;;;;;;;5050275;28;20076;-77
2022/11/18 06:14:02;;;;;;;4.72;1.30;;;;;;;;;;5050309;28;20021;-79
2022/11/18 06:16:29;;;;;;;6.45;1.58;;;;;;;;;;5050153;28;20075;-78
2022/11/18 06:18:54;;;;;;;3.00;1.30;;;;;;;;;;5033632;28;20048;-77
2022/11/18 06:21:20;;;;;;;3.92;1.60;;;;;;;;;;5050082;28;20476;-77
2022/11/18 06:23:45;;;;;;;3.08;1.55;;;;;;;;;;5035158;28;20033;-77
2022/11/18 06:26:13;;;;;;;3.65;1.15;;;;;;;;;;5049953;28;20033;-77
2022/11/18 06:28:39;;;;;;;6.70;1.52;;;;;;;;;;5049925;28;20042;-77
2022/11/18 06:31:04;;;;;;;6.95;1.50;;;;;;;;;;5034563;28;20036;-78
2022/11/18 06:33:30;;;;;;;2.92;1.30;;;;;;;;;;5049854;28;20038;-77
2022/11/18 06:35:55;;;;;;;2.60;1.30;;;;;;;;;;5050010;28;20136;-77
2022/11/18 06:38:23;;;;;;;2.28;1.30;;;;;;;;;;5050609;28;20376;-77
2022/11/18 06:40:48;;;;;;;2.38;1.40;;;;;;;;;;5034862;28;20025;-77
2022/11/18 06:48:46;;;;;;;1.70;1.40;;;;;;;;;;5034401;28;20126;-77
2022/11/18 06:51:12;;;;;;;3.60;1.52;;;;;;;;;;5049630;28;20465;-77
2022/11/18 06:53:37;;;;;;;1.27;0.98;;;;;;;;;;5049473;28;20068;-77
2022/11/18 06:56:04;;;;;;;2.63;1.10;;;;;;;;;;5049915;28;20044;-77
2022/11/18 06:58:29;;;;;;;2.60;1.27;;;;;;;;;;5049697;28;20038;-77
2022/11/18 07:00:55;;;;;;;2.15;1.27;;;;;;;;;;5049379;28;20041;-77
2022/11/18 07:03:20;;;;;;;3.60;1.25;;;;;;;;;;5034087;28;20036;-78
2022/11/18 07:05:46;;;;;;;2.80;1.60;;;;;;;;;;5032519;28;20053;-77
2022/11/18 07:08:11;;;;;;;3.20;1.20;;;;;;;;;;5049583;28;20112;-78
2022/11/18 07:10:36;;;;;;;5.03;1.40;;;;;;;;;;5049059;28;20045;-78
2022/11/18 07:13:02;;;;;;;3.17;1.30;;;;;;;;;;5049203;28;20030;-77
2022/11/18 07:15:27;;;;;;;2.17;1.40;;;;;;;;;;5049370;28;20033;-77
2022/11/18 07:17:52;;;;;;;1.70;1.40;;;;;;;;;;5049788;28;20087;-78
2022/11/18 07:20:18;;;;;;;2.47;1.20;;;;;;;;;;5034436;28;20036;-77
2022/11/18 07:22:43;;;;;;;1.60;1.20;;;;;;;;;;5050471;28;20108;-77
2022/11/18 07:25:08;;;;;;;3.55;1.50;;;;;;;;;;5049463;28;20474;-77
2022/11/18 07:27:34;;;;;;;3.28;1.63;;;;;;;;;;5049234;28;20090;-77
2022/11/18 07:29:59;;;;;;;6.00;1.50;;;;;;;;;;5033818;28;20486;-78
2022/11/18 07:32:24;;;;;;;3.67;1.25;;;;;;;;;;5034098;28;20189;-78
2022/11/18 07:34:50;;;;;;;3.47;1.67;;;;;;;;;;5033698;28;20074;-77
2022/11/18 07:37:15;;;;;;;7.60;1.50;;;;;;;;;;5033653;28;20029;-77
2022/11/18 07:39:40;;;;;;;1.92;1.42;;;;;;;;;;5015664;28;20468;-77
2022/11/18 07:42:08;;;;;;;2.88;1.27;;;;;;;;;;5048852;28;20088;-78
2022/11/18 07:44:33;;;;;;;3.75;1.60;;;;;;;;;;5048695;28;20031;-77
2022/11/18 07:46:58;;;;;;;2.55;1.40;;;;;;;;;;5048624;28;20025;-79
2022/11/18 07:49:24;;;;;;;4.60;1.60;;;;;;;;;;5032011;28;20033;-78
2022/11/18 07:51:49;;;;;;;2.65;1.55;;;;;;;;;;5033617;28;20396;-78
2022/11/18 07:54:17;;;;;;;3.08;1.40;;;;;;;;;;5048766;28;20045;-77
2022/11/18 07:56:43;;;;;;;2.85;1.45;;;;;;;;;;5048744;28;20431;-78
2022/11/18 07:59:08;;;;;;;2.03;1.70;;;;;;;;;;5048053;28;20033;-77
2022/11/18 08:01:34;;;;;;;2.15;1.35;;;;;;;;;;5055879;28;20037;-76
2022/11/18 08:04:10;;;;;;;7.85;1.50;;;;;;;;;;5058302;28;20106;-77
2022/11/18 08:06:37;;;;;;;9.20;1.60;;;;;;;;;;5042649;28;20033;-78
2022/11/18 08:09:03;;;;;;;5.85;1.48;;;;;;;;;;5042548;28;20029;-76
2022/11/18 08:11:28;;;;;;;6.15;2.15;;;;;;;;;;5044401;28;20018;-78
2022/11/18 08:13:54;;;;;;;4.40;1.58;;;;;;;;;;5053106;28;20029;-79
2022/11/18 08:16:22;;;;;;;9.15;2.55;;;;;;;;;;5067925;28;20029;-79
2022/11/18 08:18:47;;;;;;;7.63;2.60;;;;;;;;;;5050798;28;20036;-79
2022/11/18 08:21:14;;;;;;;5.88;2.10;;;;;;;;;;5042358;28;20030;-78
2022/11/18 08:23:40;;;;;;;6.75;2.40;;;;;;;;;;5055131;28;20086;-78
2022/11/18 08:26:10;;;;;;;9.32;2.60;;;;;;;;;;5041504;28;20033;-78
2022/11/18 08:28:36;;;;;;;8.57;2.40;;;;;;;;;;5049207;28;20081;-78
2022/11/18 08:31:15;;;;;;;9.15;2.45;;;;;;;;;;5067593;28;20030;-78
2022/11/18 08:33:41;;;;;;;7.32;2.58;;;;;;;;;;5045104;28;20041;-77
2022/11/18 08:36:09;;;;;;;7.93;2.33;;;;;;;;;;5064180;28;20026;-78
2022/11/18 08:38:34;;;;;;;6.70;2.47;;;;;;;;;;5063853;28;20104;-78
2022/11/18 08:41:00;;;;;;;9.10;2.38;;;;;;;;;;5063727;28;20034;-79
2022/11/18 08:43:25;;;;;;;20.42;2.80;;;;;;;;;;5043543;28;20068;-78
2022/11/18 08:45:51;;;;;;;6.93;2.30;;;;;;;;;;5055570;28;20037;-79
2022/11/18 08:48:16;;;;;;;6.82;2.20;;;;;;;;;;5036705;28;20034;-79
2022/11/18 08:50:42;;;;;;;7.35;2.13;;;;;;;;;;5052973;28;20041;-79
2022/11/18 08:53:07;;;;;;;10.18;2.33;;;;;;;;;;5035541;28;20071;-79
2022/11/18 08:55:33;;;;;;;5.30;2.40;;;;;;;;;;5037127;28;20029;-80
2022/11/18 08:57:58;;;;;;;7.75;2.53;;;;;;;;;;5036572;28;20476;-78
2022/11/18 09:00:23;;;;;;;8.57;2.58;;;;;;;;;;5050995;28;20067;-79
2022/11/18 09:02:49;;;;;;;9.15;2.70;;;;;;;;;;5044412;28;20116;-79
2022/11/18 09:05:14;;;;;;;10.65;2.00;;;;;;;;;;5051461;28;20029;-79
2022/11/18 09:07:40;;;;;;;4.43;2.00;;;;;;;;;;5036060;28;20045;-78
2022/11/18 09:10:05;;;;;;;8.38;2.22;;;;;;;;;;5053345;28;20033;-80
2022/11/18 09:12:31;;;;;;;6.00;2.03;;;;;;;;;;5051473;28;20518;-78
2022/11/18 09:14:56;;;;;;;6.80;2.28;;;;;;;;;;5044476;28;20025;-77
2022/11/18 09:17:21;;;;;;;5.03;1.65;;;;;;;;;;5043963;28;20414;-78
2022/11/18 09:19:47;;;;;;;6.63;2.10;;;;;;;;;;5062344;28;20034;-79
2022/11/18 09:22:12;;;;;;;10.82;1.98;;;;;;;;;;5053383;28;20044;-77
2022/11/18 09:24:39;;;;;;;11.95;2.15;;;;;;;;;;5037207;28;20415;-80
2022/11/18 09:27:06;;;;;;;16.02;1.80;;;;;;;;;;5039288;28;20073;-80
2022/11/18 09:29:31;;;;;;;3.65;1.85;;;;;;;;;;5038174;28;20091;-79
2022/11/18 09:31:57;;;;;;;7.45;2.08;;;;;;;;;;5038852;28;20484;-78
2022/11/18 09:34:23;;;;;;;10.27;1.80;;;;;;;;;;5037832;28;20025;-79
2022/11/18 09:36:48;;;;;;;6.53;1.77;;;;;;;;;;5038679;28;20086;-79
2022/11/18 09:39:14;;;;;;;10.40;2.08;;;;;;;;;;5036537;28;20029;-79
2022/11/18 09:41:51;;;;;;;24.25;1.90;;;;;;;;;;5037547;28;20028;-81
2022/11/18 09:44:22;;;;;;;14.48;2.30;;;;;;;;;;5037877;28;20052;-78
2022/11/18 09:47:25;;;;;;;6.00;1.65;;;;;;;;;;5037058;28;20118;-77
2022/11/18 09:49:51;;;;;;;12.68;2.20;;;;;;;;;;5034718;28;20056;-79
2022/11/18 09:52:21;;;;;;;6.75;1.85;;;;;;;;;;5051122;28;20408;-79
2022/11/18 09:54:46;;;;;;;11.25;2.40;;;;;;;;;;5034314;28;20033;-77
2022/11/18 09:57:20;;;;;;;8.85;1.95;;;;;;;;;;5050726;28;20025;-77
2022/11/18 09:59:45;;;;;;;9.30;1.90;;;;;;;;;;5034133;28;20472;-77
2022/11/18 10:02:25;;;;;;;6.25;1.95;;;;;;;;;;5017382;28;20044;-76
2022/11/18 10:04:51;;;;;;;10.43;2.50;;;;;;;;;;5033961;28;20026;-78
2022/11/18 10:07:29;;;;;;;27.85;5.38;;;;;;;;;;5051123;28;20040;-81
2022/11/18 10:09:55;;;;;;;43.65;7.25;;;;;;;;;;5050519;28;20026;-77
2022/11/18 10:12:33;;;;;;;44.75;8.18;;;;;;;;;;5050787;28;20108;-76
2022/11/18 10:15:17;;;;;;;35.85;6.78;;;;;;;;;;5050368;28;20022;-76
2022/11/18 10:18:00;;;;;;;34.50;6.82;;;;;;;;;;5035345;28;20039;-76
2022/11/18 10:20:31;;;;;;;31.70;5.60;;;;;;;;;;5035029;28;20539;-77
2022/11/18 10:23:17;;;;;;;31.30;6.10;;;;;;;;;;5033636;28;20034;-77
2022/11/18 10:25:43;;;;;;;22.33;4.97;;;;;;;;;;5050163;28;20033;-76
2022/11/18 10:28:30;;;;;;;18.73;4.18;;;;;;;;;;5050310;28;20049;-76
2022/11/18 10:31:07;;;;;;;15.70;3.97;;;;;;;;;;5049967;28;20037;-77
2022/11/18 10:33:33;;;;;;;16.27;4.25;;;;;;;;;;5050502;28;20022;-77
2022/11/18 10:36:29;;;;;;;17.15;4.13;;;;;;;;;;5035268;28;20476;-75
2022/11/18 10:39:22;;;;;;;16.90;4.30;;;;;;;;;;5017916;28;20064;-75
2022/11/18 10:41:50;;;;;;;11.30;3.15;;;;;;;;;;5034904;28;20025;-75
2022/11/18 10:44:31;;;;;;;11.52;3.10;;;;;;;;;;5050193;28;20411;-74
2022/11/18 10:47:29;;;;;;;15.95;3.47;;;;;;;;;;5034746;28;20032;-75
2022/11/18 10:50:00;;;;;;;17.60;4.07;;;;;;;;;;5049980;28;20029;-74
2022/11/18 10:52:28;;;;;;;12.13;3.30;;;;;;;;;;5049825;28;20025;-76
2022/11/18 10:55:12;;;;;;;18.95;4.32;;;;;;;;;;5049351;28;20033;-76
2022/11/18 10:57:42;;;;;;;;;;;;;;;;;;5034440;28;20036;-76
2022/11/18 11:00:32;;;;;;;14.80;3.40;;;;;;;;;;5035185;28;19913;-76
2022/11/18 11:02:57;;;;;;;13.55;3.70;;;;;;;;;;5035096;28;20029;-76
2022/11/18 11:05:23;;;;;;;14.30;3.35;;;;;;;;;;5035098;28;20491;-76
2022/11/18 11:08:18;;;;;;;9.80;2.90;;;;;;;;;;5051767;28;20029;-76
2022/11/18 11:10:53;;;;;;;;;;;;;;;;;;5051434;28;20429;-76
2022/11/18 11:13:19;;;;;;;10.18;2.78;;;;;;;;;;5035415;28;20367;-76
2022/11/18 11:15:46;;;;;;;7.93;3.20;;;;;;;;;;5054316;28;20040;-76
2022/11/18 11:18:40;;;;;;;10.85;3.05;;;;;;;;;;5054816;28;20431;-75
2022/11/18 11:21:17;;;;;;;8.80;2.80;;;;;;;;;;5038855;28;20035;-76
2022/11/18 11:23:43;;;;;;;12.85;2.85;;;;;;;;;;5051819;28;20033;-76
2022/11/18 11:26:36;;;;;;;7.53;2.65;;;;;;;;;;5034549;28;20033;-76
2022/11/18 11:29:20;;;;;;;10.05;2.72;;;;;;;;;;5033154;28;20045;-76
2022/11/18 11:31:51;;;;;;;7.43;2.72;;;;;;;;;;5049917;28;20033;-76
2022/11/18 11:34:27;;;;;;;7.35;2.53;;;;;;;;;;5033761;28;20119;-75
2022/11/18 11:37:44;;;;;;;9.07;2.78;;;;;;;;;;5049337;28;20487;-75
2022/11/18 11:40:18;;;;;;;10.57;2.55;;;;;;;;;;5007906;28;20052;-75
2022/11/18 11:42:50;;;;;;;6.70;2.47;;;;;;;;;;5032108;28;20030;-75
2022/11/18 11:46:00;;;;;;;7.40;2.50;;;;;;;;;;5048283;28;20033;-75
2022/11/18 11:49:01;;;;;;;9.68;2.72;;;;;;;;;;4970890;28;20033;-75
2022/11/18 11:51:32;;;;;;;9.13;2.40;;;;;;;;;;5025111;28;20087;-76
2022/11/18 11:54:30;;;;;;;5.60;2.13;;;;;;;;;;5033962;28;20079;-75
2022/11/18 11:57:17;;;;;;;5.53;2.20;;;;;;;;;;5033790;28;20341;-75
2022/11/18 11:59:57;;;;;;;3.58;1.90;;;;;;;;;;5048589;28;20056;-75
2022/11/18 12:02:36;;;;;;;8.10;2.50;;;;;;;;;;5032123;28;20461;-75
2022/11/18 12:05:23;;;;;;;9.57;2.00;;;;;;;;;;5033416;28;20026;-75
2022/11/18 12:07:58;;;;;;;5.53;2.13;;;;;;;;;;5032019;28;20044;-75
2022/11/18 12:10:28;;;;;;;5.82;2.20;;;;;;;;;;5033132;28;20113;-75
2022/11/18 12:13:21;;;;;;;8.73;2.53;;;;;;;;;;5033573;28;20468;-75
2022/11/18 12:16:04;;;;;;;5.68;2.05;;;;;;;;;;5031663;28;20468;-75
2022/11/18 12:18:32;;;;;;;7.22;1.70;;;;;;;;;;5048356;28;20052;-75
2022/11/18 12:20:57;;;;;;;4.40;1.80;;;;;;;;;;5048705;28;20029;-75
2022/11/18 12:23:28;;;;;;;4.20;1.67;;;;;;;;;;5015375;28;20031;-76
2022/11/18 12:26:02;;;;;;;4.35;2.13;;;;;;;;;;5048300;28;20041;-75
2022/11/18 12:28:31;;;;;;;3.83;2.08;;;;;;;;;;5048174;28;20121;-75
2022/11/18 12:31:15;;;;;;;4.63;1.98;;;;;;;;;;5048278;28;20061;-75
2022/11/18 12:33:44;;;;;;;;;;;;;;;;;;5033366;28;20029;-76
2022/11/18 12:36:11;;;;;;;6.35;1.80;;;;;;;;;;5015190;28;20352;-76
2022/11/18 12:38:36;;;;;;;5.55;1.85;;;;;;;;;;5048358;28;20033;-76
2022/11/18 12:43:45;;;;;;;4.60;1.90;;;;;;;;;;5033147;28;20029;-76
2022/11/18 12:43:47;;;;;;;6.60;2.10;;;;;;;;;;5045856;28;20412;-76
2022/11/18 12:46:37;;;;;;;4.68;1.50;;;;;;;;;;5031600;28;20024;-76
2022/11/18 12:49:21;;;;;;;3.60;1.80;;;;;;;;;;5031838;28;20104;-76
2022/11/18 12:51:48;;;;;;;4.10;1.80;;;;;;;;;;5032901;28;20472;-75
2022/11/18 12:54:37;;;;;;;2.85;1.60;;;;;;;;;;5031596;28;20083;-76
2022/11/18 12:57:17;;;;;;;5.82;1.58;;;;;;;;;;5020424;28;20036;-76
2022/11/18 12:59:42;;;;;;;6.90;1.88;;;;;;;;;;5036825;28;20415;-75
2022/11/18 13:02:11;;;;;;;5.22;1.60;;;;;;;;;;5035266;28;20415;-75
2022/11/18 13:04:39;;;;;;;3.92;1.67;;;;;;;;;;5036504;28;20104;-76
2022/11/18 13:08:11;;;;;;;3.80;1.50;;;;;;;;;;5051972;28;20029;-75
2022/11/18 13:09:54;;;;;;;2.80;1.50;;;;;;;;;;5048865;28;20022;-75
2022/11/18 13:12:20;;;;;;;4.68;1.75;;;;;;;;;;5034894;28;20022;-76
2022/11/18 13:20:38;;;;;;;3.05;1.50;;;;;;;;;;5035160;28;20040;-76
2022/11/18 13:26:05;;;;;;;3.28;1.50;;;;;;;;;;5035941;28;20144;-75
2022/11/18 13:28:58;;;;;;;5.57;1.60;;;;;;;;;;5035935;28;20034;-75
2022/11/18 13:31:33;;;;;;;5.00;1.90;;;;;;;;;;5028055;28;20473;-75
2022/11/18 13:34:07;;;;;;;4.15;1.63;;;;;;;;;;5036974;28;20032;-75
2022/11/18 13:36:32;;;;;;;3.35;1.63;;;;;;;;;;5051414;28;20116;-75
2022/11/18 13:39:00;;;;;;;3.83;1.70;;;;;;;;;;5051655;28;20057;-76
2022/11/18 13:41:33;;;;;;;7.35;1.83;;;;;;;;;;5050926;28;20025;-75
2022/11/18 13:44:18;;;;;;;6.85;2.08;;;;;;;;;;5034221;28;20036;-75
2022/11/18 13:46:46;;;;;;;4.15;1.75;;;;;;;;;;5051041;28;20096;-75
2022/11/18 13:49:18;;;;;;;2.30;1.60;;;;;;;;;;5051167;28;20031;-75
2022/11/18 13:51:43;;;;;;;4.75;1.60;;;;;;;;;;5051228;28;20029;-75
2022/11/18 13:54:23;;;;;;;6.47;1.90;;;;;;;;;;5050608;28;20034;-75
2022/11/18 13:56:48;;;;;;;4.35;1.50;;;;;;;;;;5051171;28;20065;-76
2022/11/18 13:59:17;;;;;;;2.55;1.50;;;;;;;;;;5051120;28;20029;-76
2022/11/18 14:01:44;;;;;;;4.53;1.80;;;;;;;;;;5050744;28;20047;-76
2022/11/18 14:04:17;;;;;;;2.13;1.40;;;;;;;;;;5033879;28;20486;-76
2022/11/18 14:06:42;;;;;;;3.58;1.80;;;;;;;;;;5050296;28;20473;-76
2022/11/18 14:09:29;;;;;;;4.10;1.73;;;;;;;;;;5049977;28;20083;-76
2022/11/18 14:12:12;;;;;;;7.00;1.98;;;;;;;;;;5050806;28;20022;-75
2022/11/18 14:14:40;;;;;;;5.15;1.75;;;;;;;;;;5034741;28;20551;-77
2022/11/18 14:17:17;;;;;;;4.40;1.50;;;;;;;;;;5050730;28;20030;-76
2022/11/18 14:19:43;;;;;;;4.18;1.80;;;;;;;;;;5033666;28;20029;-75
2022/11/18 14:22:32;;;;;;;4.28;1.90;;;;;;;;;;5016469;28;20577;-76
2022/11/18 14:25:02;;;;;;;7.65;1.98;;;;;;;;;;5033116;28;20033;-75
2022/11/18 14:27:38;;;;;;;5.22;2.08;;;;;;;;;;5049854;28;20032;-76
2022/11/18 14:30:37;;;;;;;4.55;1.92;;;;;;;;;;5049830;28;20045;-77
2022/11/18 14:33:21;;;;;;;7.68;2.13;;;;;;;;;;4990292;28;20047;-77
2022/11/18 14:35:58;;;;;;;8.48;2.22;;;;;;;;;;5034082;28;20110;-75
2022/11/18 14:38:32;;;;;;;7.82;2.13;;;;;;;;;;5049712;28;20116;-75
2022/11/18 14:41:00;;;;;;;4.88;2.08;;;;;;;;;;5033824;28;20029;-76
2022/11/18 14:43:26;;;;;;;4.60;2.25;;;;;;;;;;5049261;28;20112;-76
2022/11/18 14:45:58;;;;;;;6.20;2.30;;;;;;;;;;5049405;28;20056;-76
2022/11/18 14:48:25;;;;;;;6.70;2.00;;;;;;;;;;5049230;28;20076;-76
2022/11/18 14:50:51;;;;;;;6.22;2.28;;;;;;;;;;5049951;28;20021;-76
2022/11/18 14:53:17;;;;;;;15.57;2.08;;;;;;;;;;5033395;28;20029;-76
2022/11/18 14:55:44;;;;;;;7.88;2.38;;;;;;;;;;5049253;28;20080;-76
2022/11/18 14:58:15;;;;;;;7.28;2.50;;;;;;;;;;5048863;28;20041;-75
2022/11/18 15:00:42;;;;;;;10.30;2.28;;;;;;;;;;5048625;28;20048;-76
2022/11/18 15:03:08;;;;;;;6.85;2.90;;;;;;;;;;5032916;28;20453;-75
2022/11/18 15:05:33;;;;;;;9.10;2.40;;;;;;;;;;5033664;28;20068;-76
2022/11/18 15:07:58;;;;;;;7.30;2.25;;;;;;;;;;5048676;28;20095;-76
2022/11/18 15:10:24;;;;;;;3.78;2.20;;;;;;;;;;5048635;28;20022;-76
2022/11/18 15:12:49;;;;;;;10.80;2.22;;;;;;;;;;5033903;28;20044;-76
2022/11/18 15:15:15;;;;;;;7.25;2.30;;;;;;;;;;5044853;28;20031;-76
2022/11/18 15:17:40;;;;;;;6.57;2.30;;;;;;;;;;5066907;28;20163;-76
2022/11/18 15:20:06;;;;;;;8.07;2.60;;;;;;;;;;5057009;28;20040;-76
2022/11/18 15:22:33;;;;;;;11.25;2.42;;;;;;;;;;5050923;28;20029;-76
2022/11/18 15:24:58;;;;;;;6.72;2.28;;;;;;;;;;5049111;28;20030;-76
2022/11/18 15:27:24;;;;;;;4.85;2.28;;;;;;;;;;5049201;28;20124;-76
2022/11/18 15:29:49;;;;;;;4.70;2.17;;;;;;;;;;5049051;28;20049;-76